X  Luk Metar data     EKRN Bornholm Airport
Temperatur
0°C Temperatur
-6°C Duggpunkt
64% Fugtighed



Vind
4 M/S
9 MPT
14 KM/T
8 KNOB



60°
ØNØ
Nuværende forhold

Overkyet Overkyet
Tryk 1016.92 (hPa) - 30.03 (inHg)
Sigt 6.2 (mil) - 10 (km)
Lufthavn
Lufthavnskode EKRN

Lokation: Bornholm Airport
Afstand: 20 (km)

Metar:
EKRN 061050Z 06008KT 9999 OVC032 00/M06 Q1017

Tid: 06-12-2021 11:50 CET